Time;durP1;ratioP1;P1;durP2;ratioP2;P2;SDS_P1;SDS_P2;PMS_P1;PMS_P2;Temp;Humidity;BMP_temperature;BMP_pressure;BME280_temperature;BME280_humidity;BME280_pressure;Samples;Min_cycle;Max_cycle;Signal;HPM_P1;HPM_P2
2023/11/02 00:01:37;;;;;;;4.80;0.85;;;;;;;;;;5072499;28;20059;-84
2023/11/02 00:04:02;;;;;;;2.50;1.20;;;;;;;;;;5054986;28;20029;-84
2023/11/02 00:06:28;;;;;;;7.13;1.48;;;;;;;;;;5054477;28;20055;-84
2023/11/02 00:09:19;;;;;;;7.07;1.30;;;;;;;;;;5072517;28;20016;-84
2023/11/02 00:11:49;;;;;;;2.15;1.00;;;;;;;;;;5031639;28;20085;-84
2023/11/02 00:14:16;;;;;;;5.82;1.10;;;;;;;;;;5072519;28;20426;-84
2023/11/02 00:16:41;;;;;;;4.53;1.23;;;;;;;;;;5054497;28;20384;-84
2023/11/02 00:19:08;;;;;;;5.63;1.02;;;;;;;;;;5054531;28;20025;-84
2023/11/02 00:21:33;;;;;;;1.92;0.93;;;;;;;;;;5054528;28;20068;-84
2023/11/02 00:23:58;;;;;;;3.58;1.10;;;;;;;;;;5072105;28;20048;-84
2023/11/02 00:26:25;;;;;;;2.60;1.17;;;;;;;;;;5072327;28;20063;-84
2023/11/02 00:28:50;;;;;;;2.92;0.82;;;;;;;;;;5072471;28;20345;-84
2023/11/02 00:31:16;;;;;;;7.90;1.90;;;;;;;;;;5054448;28;20450;-84
2023/11/02 00:33:42;;;;;;;5.63;0.90;;;;;;;;;;5054024;28;20694;-84
2023/11/02 00:36:07;;;;;;;2.30;1.45;;;;;;;;;;5054375;28;20046;-83
2023/11/02 00:38:33;;;;;;;3.05;1.20;;;;;;;;;;5054282;28;20515;-84
2023/11/02 00:40:59;;;;;;;4.50;1.07;;;;;;;;;;5054175;28;20414;-84
2023/11/02 00:43:25;;;;;;;6.35;1.15;;;;;;;;;;5054342;28;20769;-84
2023/11/02 00:45:51;;;;;;;5.90;1.25;;;;;;;;;;5073327;28;20032;-84
2023/11/02 00:48:33;;;;;;;6.72;1.38;;;;;;;;;;5075864;28;20020;-84
2023/11/02 00:51:08;;;;;;;3.28;1.20;;;;;;;;;;5057739;28;20059;-84
2023/11/02 00:53:36;;;;;;;10.52;1.23;;;;;;;;;;5057704;28;20480;-84
2023/11/02 00:56:05;;;;;;;6.07;1.35;;;;;;;;;;5057797;28;20021;-84
2023/11/02 00:58:31;;;;;;;4.50;1.20;;;;;;;;;;5075763;28;20058;-84
2023/11/02 01:00:57;;;;;;;2.35;1.20;;;;;;;;;;5057790;28;20028;-84
2023/11/02 01:03:22;;;;;;;1.98;1.10;;;;;;;;;;5075410;28;20020;-84
2023/11/02 01:05:48;;;;;;;3.42;1.25;;;;;;;;;;5057536;28;20496;-83
2023/11/02 01:08:14;;;;;;;2.40;1.10;;;;;;;;;;5057601;28;20028;-84
2023/11/02 01:10:43;;;;;;;5.15;1.58;;;;;;;;;;5057352;28;20025;-84
2023/11/02 01:13:10;;;;;;;6.75;1.13;;;;;;;;;;5057425;28;20412;-84
2023/11/02 01:15:44;;;;;;;1.50;0.90;;;;;;;;;;5075254;28;20492;-83
2023/11/02 01:18:10;;;;;;;4.22;1.13;;;;;;;;;;5057552;28;20491;-83
2023/11/02 01:20:39;;;;;;;5.03;1.23;;;;;;;;;;5057663;28;20087;-83
2023/11/02 01:23:08;;;;;;;3.75;1.35;;;;;;;;;;5075452;28;20040;-83
2023/11/02 01:25:39;;;;;;;3.60;1.60;;;;;;;;;;5057552;28;20032;-83
2023/11/02 01:28:06;;;;;;;6.13;1.30;;;;;;;;;;5075484;28;20020;-83
2023/11/02 01:30:31;;;;;;;2.80;0.98;;;;;;;;;;5057044;28;20020;-84
2023/11/02 01:32:56;;;;;;;2.72;1.17;;;;;;;;;;5074919;28;20036;-84
2023/11/02 01:35:36;;;;;;;1.70;0.90;;;;;;;;;;5075010;28;20456;-84
2023/11/02 01:38:02;;;;;;;3.55;1.40;;;;;;;;;;5057057;28;20277;-84
2023/11/02 01:40:34;;;;;;;2.08;1.00;;;;;;;;;;5074829;28;20071;-83
2023/11/02 01:43:00;;;;;;;;;;;;;;;;;;5057444;28;20419;-84
2023/11/02 01:45:26;;;;;;;2.08;1.00;;;;;;;;;;5056945;28;19914;-84
2023/11/02 01:48:04;;;;;;;1.90;0.90;;;;;;;;;;5056687;28;20111;-84
2023/11/02 01:50:44;;;;;;;7.40;1.00;;;;;;;;;;5056803;28;20489;-84
2023/11/02 01:53:28;;;;;;;3.28;0.80;;;;;;;;;;5056568;28;20024;-84
2023/11/02 01:56:04;;;;;;;4.90;1.27;;;;;;;;;;5056949;28;20108;-84
2023/11/02 01:58:48;;;;;;;2.20;0.90;;;;;;;;;;5056010;28;20029;-84
2023/11/02 02:01:16;;;;;;;2.67;1.23;;;;;;;;;;5074199;28;20048;-84
2023/11/02 02:03:51;;;;;;;2.67;1.17;;;;;;;;;;5056640;28;20035;-84
2023/11/02 02:06:26;;;;;;;2.38;0.95;;;;;;;;;;5056366;28;20020;-84
2023/11/02 02:09:15;;;;;;;5.40;1.40;;;;;;;;;;5056366;28;20115;-84
2023/11/02 02:11:43;;;;;;;1.48;1.15;;;;;;;;;;5068621;28;20468;-83
2023/11/02 02:14:09;;;;;;;6.43;1.00;;;;;;;;;;5074250;28;20077;-84
2023/11/02 02:16:40;;;;;;;3.75;0.93;;;;;;;;;;5074066;28;20024;-84
2023/11/02 02:19:13;;;;;;;4.63;1.23;;;;;;;;;;5056085;28;20388;-84
2023/11/02 02:21:45;;;;;;;2.90;1.23;;;;;;;;;;5056048;28;20016;-84
2023/11/02 02:24:10;;;;;;;1.20;0.80;;;;;;;;;;5056243;28;20584;-83
2023/11/02 02:26:54;;;;;;;3.10;1.20;;;;;;;;;;5055796;28;20108;-84
2023/11/02 02:29:34;;;;;;;2.20;1.10;;;;;;;;;;5073830;28;20021;-84
2023/11/02 02:32:12;;;;;;;3.53;1.10;;;;;;;;;;5049551;28;20383;-84
2023/11/02 02:34:56;;;;;;;7.07;1.25;;;;;;;;;;5055594;28;20024;-83
2023/11/02 02:37:33;;;;;;;4.10;1.05;;;;;;;;;;5055903;28;20376;-84
2023/11/02 02:40:05;;;;;;;5.10;1.00;;;;;;;;;;5047251;28;20031;-84
2023/11/02 02:42:33;;;;;;;4.15;1.38;;;;;;;;;;5055770;28;20024;-83
2023/11/02 02:45:03;;;;;;;2.28;0.82;;;;;;;;;;5038984;28;20400;-84
2023/11/02 02:47:29;;;;;;;2.55;1.17;;;;;;;;;;5055625;28;20020;-84
2023/11/02 02:49:56;;;;;;;2.67;1.02;;;;;;;;;;5073315;28;20369;-84
2023/11/02 02:52:22;;;;;;;2.08;0.88;;;;;;;;;;5055677;28;20516;-84
2023/11/02 02:54:52;;;;;;;4.82;1.08;;;;;;;;;;5055185;28;20127;-84
2023/11/02 02:57:19;;;;;;;2.65;0.90;;;;;;;;;;5055421;28;20052;-84
2023/11/02 02:59:47;;;;;;;4.78;1.63;;;;;;;;;;5055624;28;20111;-84
2023/11/02 03:02:14;;;;;;;3.20;1.10;;;;;;;;;;5055530;28;20016;-84
2023/11/02 03:04:41;;;;;;;4.85;0.95;;;;;;;;;;5073379;28;20058;-83
2023/11/02 03:07:06;;;;;;;3.72;0.98;;;;;;;;;;5055266;28;20028;-84
2023/11/02 03:09:32;;;;;;;6.82;1.10;;;;;;;;;;5054355;28;20024;-84
2023/11/02 03:12:00;;;;;;;2.90;1.02;;;;;;;;;;5055269;28;20027;-84
2023/11/02 03:14:26;;;;;;;2.03;0.80;;;;;;;;;;5055209;28;20174;-84
2023/11/02 03:16:52;;;;;;;5.55;1.38;;;;;;;;;;5055171;28;20504;-85
2023/11/02 03:19:41;;;;;;;2.20;0.95;;;;;;;;;;5055275;28;20472;-84
2023/11/02 03:22:09;;;;;;;2.65;0.90;;;;;;;;;;5049861;28;20515;-84
2023/11/02 03:24:43;;;;;;;6.97;1.20;;;;;;;;;;5073263;28;20056;-84
2023/11/02 03:27:10;;;;;;;3.28;1.20;;;;;;;;;;5054971;28;20388;-84
2023/11/02 03:29:44;;;;;;;3.90;0.98;;;;;;;;;;5054853;28;20472;-84
2023/11/02 03:32:16;;;;;;;5.22;1.25;;;;;;;;;;5055011;28;20016;-84
2023/11/02 03:34:50;;;;;;;7.35;1.38;;;;;;;;;;5072787;28;20496;-84
2023/11/02 03:37:33;;;;;;;2.28;0.95;;;;;;;;;;5054940;28;20032;-84
2023/11/02 03:39:58;;;;;;;3.90;1.15;;;;;;;;;;5054842;28;20021;-84
2023/11/02 03:42:33;;;;;;;4.00;0.90;;;;;;;;;;5054886;28;20500;-84
2023/11/02 03:45:01;;;;;;;4.40;1.00;;;;;;;;;;5072733;28;21900;-84
2023/11/02 03:47:38;;;;;;;9.77;1.70;;;;;;;;;;5072934;28;20020;-84
2023/11/02 03:50:09;;;;;;;4.57;0.75;;;;;;;;;;5072666;28;20091;-84
2023/11/02 03:52:34;;;;;;;6.68;1.73;;;;;;;;;;5054810;28;20031;-84
2023/11/02 03:55:15;;;;;;;3.10;0.90;;;;;;;;;;5054420;28;20028;-84
2023/11/02 03:57:49;;;;;;;2.17;0.98;;;;;;;;;;5054760;28;20265;-84
2023/11/02 04:00:20;;;;;;;2.30;0.90;;;;;;;;;;5054491;28;20548;-84
2023/11/02 04:02:48;;;;;;;1.58;1.00;;;;;;;;;;5054842;28;20032;-84
2023/11/02 04:05:19;;;;;;;5.03;1.15;;;;;;;;;;5054531;28;20024;-84
2023/11/02 04:07:44;;;;;;;4.93;0.98;;;;;;;;;;5072592;28;20052;-84
2023/11/02 04:10:11;;;;;;;3.63;1.05;;;;;;;;;;5054805;28;20021;-83
2023/11/02 04:12:37;;;;;;;3.80;0.85;;;;;;;;;;5054514;28;20054;-83
2023/11/02 04:15:03;;;;;;;2.57;0.87;;;;;;;;;;5054493;28;20423;-83
2023/11/02 04:17:29;;;;;;;2.10;0.85;;;;;;;;;;5072286;28;20009;-83
2023/11/02 04:19:54;;;;;;;8.05;1.08;;;;;;;;;;5054429;28;20021;-84
2023/11/02 04:22:20;;;;;;;1.35;0.85;;;;;;;;;;5058015;28;20017;-84
2023/11/02 04:24:45;;;;;;;10.13;1.33;;;;;;;;;;5058236;28;20059;-84
2023/11/02 04:27:11;;;;;;;1.48;0.90;;;;;;;;;;5058306;28;20159;-84
2023/11/02 04:29:36;;;;;;;1.23;0.60;;;;;;;;;;5076315;28;20024;-84
2023/11/02 04:32:01;;;;;;;6.40;1.10;;;;;;;;;;5058213;28;20030;-84
2023/11/02 04:34:26;;;;;;;2.95;1.00;;;;;;;;;;5075780;28;20029;-84
2023/11/02 04:36:53;;;;;;;7.05;1.10;;;;;;;;;;5076189;28;20019;-84
2023/11/02 04:39:18;;;;;;;3.88;0.80;;;;;;;;;;5058236;28;20016;-84
2023/11/02 04:41:44;;;;;;;2.38;0.93;;;;;;;;;;5075746;28;20082;-84
2023/11/02 04:44:09;;;;;;;2.67;1.00;;;;;;;;;;5057996;28;20065;-84
2023/11/02 04:46:35;;;;;;;5.07;0.95;;;;;;;;;;5075909;28;20269;-84
2023/11/02 04:49:00;;;;;;;4.20;1.10;;;;;;;;;;5058146;28;20020;-84
2023/11/02 04:51:25;;;;;;;6.37;1.47;;;;;;;;;;5058036;28;20021;-84
2023/11/02 04:53:50;;;;;;;6.03;1.45;;;;;;;;;;5057470;28;20280;-84
2023/11/02 04:56:19;;;;;;;2.97;1.23;;;;;;;;;;5075675;28;20009;-84
2023/11/02 04:58:44;;;;;;;3.35;1.20;;;;;;;;;;5057943;28;20138;-86
2023/11/02 05:01:09;;;;;;;2.33;1.10;;;;;;;;;;5057966;28;20095;-83
2023/11/02 05:03:34;;;;;;;2.30;1.10;;;;;;;;;;5057892;28;20028;-84
2023/11/02 05:06:00;;;;;;;5.25;1.25;;;;;;;;;;5075538;28;20271;-84
2023/11/02 05:08:25;;;;;;;5.68;1.10;;;;;;;;;;5057380;28;20021;-84
2023/11/02 05:10:50;;;;;;;3.90;1.30;;;;;;;;;;5058014;28;20027;-85
2023/11/02 05:13:16;;;;;;;5.68;1.17;;;;;;;;;;5075655;28;20281;-83
2023/11/02 05:15:41;;;;;;;6.47;1.50;;;;;;;;;;5057762;28;20020;-83
2023/11/02 05:18:06;;;;;;;8.63;1.40;;;;;;;;;;5077712;28;20046;-89
2023/11/02 05:20:31;;;;;;;1.87;1.07;;;;;;;;;;5059635;28;20265;-88
2023/11/02 05:22:57;;;;;;;4.30;1.20;;;;;;;;;;5042322;28;20261;-90
2023/11/02 05:25:23;;;;;;;4.97;1.33;;;;;;;;;;5058090;28;20016;-85
2023/11/02 05:27:48;;;;;;;2.88;1.20;;;;;;;;;;5058064;28;20258;-86
2023/11/02 05:30:13;;;;;;;3.95;1.42;;;;;;;;;;5057105;28;20096;-84
2023/11/02 05:32:39;;;;;;;3.72;1.17;;;;;;;;;;5056013;28;20021;-84
2023/11/02 05:35:05;;;;;;;5.05;1.58;;;;;;;;;;5075037;28;20077;-85
2023/11/02 05:37:31;;;;;;;3.30;1.45;;;;;;;;;;5056846;28;20365;-86
2023/11/02 05:39:56;;;;;;;2.53;1.30;;;;;;;;;;5074870;28;20372;-86
2023/11/02 05:42:23;;;;;;;3.60;1.50;;;;;;;;;;5075746;28;20013;-86
2023/11/02 05:44:48;;;;;;;2.00;1.25;;;;;;;;;;5056719;28;20253;-86
2023/11/02 05:47:13;;;;;;;2.17;1.40;;;;;;;;;;5057685;28;20024;-86
2023/11/02 05:49:38;;;;;;;10.57;2.00;;;;;;;;;;5057242;28;20293;-86
2023/11/02 05:52:04;;;;;;;5.40;1.60;;;;;;;;;;5057587;28;20281;-87
2023/11/02 05:54:29;;;;;;;3.53;1.27;;;;;;;;;;5057593;28;20360;-86
2023/11/02 05:56:55;;;;;;;5.93;1.65;;;;;;;;;;5075708;28;20017;-86
2023/11/02 05:59:20;;;;;;;4.33;1.23;;;;;;;;;;5057480;28;20027;-86
2023/11/02 06:01:45;;;;;;;6.07;1.70;;;;;;;;;;5057556;28;20258;-86
2023/11/02 06:04:10;;;;;;;4.03;1.42;;;;;;;;;;5057126;28;20328;-86
2023/11/02 06:06:36;;;;;;;3.60;1.40;;;;;;;;;;5075103;28;20016;-86
2023/11/02 06:09:02;;;;;;;5.13;1.70;;;;;;;;;;5057085;28;20403;-86
2023/11/02 06:11:28;;;;;;;6.97;1.50;;;;;;;;;;5057308;28;20253;-86
2023/11/02 06:13:53;;;;;;;2.25;1.35;;;;;;;;;;5057503;28;20032;-86
2023/11/02 06:16:18;;;;;;;5.82;1.48;;;;;;;;;;5057348;28;20027;-87
2023/11/02 06:18:44;;;;;;;4.43;1.60;;;;;;;;;;5057388;28;20381;-87
2023/11/02 06:21:09;;;;;;;5.78;1.73;;;;;;;;;;5075237;28;20320;-86
2023/11/02 06:23:34;;;;;;;12.02;4.43;;;;;;;;;;5074888;28;20078;-87
2023/11/02 06:26:00;;;;;;;8.63;3.88;;;;;;;;;;5057032;28;20115;-87
2023/11/02 06:28:25;;;;;;;5.90;2.67;;;;;;;;;;5075121;28;20024;-87
2023/11/02 06:30:51;;;;;;;6.60;1.88;;;;;;;;;;5074950;28;20340;-87
2023/11/02 06:33:20;;;;;;;2.30;1.23;;;;;;;;;;5057092;28;20435;-87
2023/11/02 06:35:46;;;;;;;3.70;1.25;;;;;;;;;;5074869;28;20480;-87
2023/11/02 06:38:11;;;;;;;4.37;1.30;;;;;;;;;;5056963;28;20020;-87
2023/11/02 06:40:36;;;;;;;4.93;1.40;;;;;;;;;;5056654;28;20078;-86
2023/11/02 06:43:02;;;;;;;4.00;1.83;;;;;;;;;;5056247;28;20051;-86
2023/11/02 06:45:27;;;;;;;2.87;1.30;;;;;;;;;;5056535;28;20039;-86
2023/11/02 06:47:52;;;;;;;5.33;1.50;;;;;;;;;;5057103;28;20606;-88
2023/11/02 06:50:17;;;;;;;3.67;1.30;;;;;;;;;;5056962;28;20244;-87
2023/11/02 06:52:43;;;;;;;2.75;1.40;;;;;;;;;;5056873;28;20707;-87
2023/11/02 06:55:08;;;;;;;2.03;1.27;;;;;;;;;;5056720;28;20099;-87
2023/11/02 06:57:34;;;;;;;2.05;1.33;;;;;;;;;;5056936;28;20020;-87
2023/11/02 06:59:59;;;;;;;5.33;1.00;;;;;;;;;;5074468;28;20048;-87
2023/11/02 07:02:24;;;;;;;1.67;0.77;;;;;;;;;;5074770;28;20283;-86
2023/11/02 07:04:57;;;;;;;2.57;1.00;;;;;;;;;;5056828;28;20031;-87
2023/11/02 07:07:22;;;;;;;;;;;;;;;;;;5074734;28;20280;-87
2023/11/02 07:09:48;;;;;;;2.55;1.05;;;;;;;;;;5074418;28;19991;-87
2023/11/02 07:12:14;;;;;;;6.97;1.23;;;;;;;;;;5056597;28;20020;-87
2023/11/02 07:14:39;;;;;;;5.25;1.80;;;;;;;;;;5056238;28;20021;-87
2023/11/02 07:17:05;;;;;;;1.60;0.93;;;;;;;;;;5056453;28;20069;-86
2023/11/02 07:19:30;;;;;;;2.70;1.20;;;;;;;;;;5056085;28;20024;-86
2023/11/02 07:21:57;;;;;;;10.93;3.93;;;;;;;;;;5056097;28;20029;-87
2023/11/02 07:24:22;;;;;;;4.68;1.35;;;;;;;;;;5055877;28;20300;-87
2023/11/02 07:26:47;;;;;;;4.23;1.47;;;;;;;;;;5056159;28;20415;-86
2023/11/02 07:29:12;;;;;;;3.13;1.40;;;;;;;;;;5074166;28;20020;-87
2023/11/02 07:31:39;;;;;;;9.20;1.97;;;;;;;;;;5074147;28;20261;-86
2023/11/02 07:34:04;;;;;;;2.78;0.95;;;;;;;;;;5074252;28;20269;-86
2023/11/02 07:36:29;;;;;;;3.33;2.13;;;;;;;;;;5055962;28;20021;-86
2023/11/02 07:38:55;;;;;;;2.30;1.17;;;;;;;;;;5056271;28;20074;-86
2023/11/02 07:41:20;;;;;;;6.60;1.40;;;;;;;;;;5073868;28;20303;-87
2023/11/02 07:43:45;;;;;;;5.85;1.45;;;;;;;;;;5055858;28;20028;-87
2023/11/02 07:46:10;;;;;;;1.00;0.90;;;;;;;;;;5056001;28;20044;-86
2023/11/02 07:48:37;;;;;;;2.33;1.50;;;;;;;;;;5073480;28;20028;-86
2023/11/02 07:51:03;;;;;;;1.63;1.05;;;;;;;;;;5073600;28;20089;-86
2023/11/02 07:53:29;;;;;;;2.25;0.85;;;;;;;;;;5055679;28;20091;-85
2023/11/02 07:55:54;;;;;;;2.30;1.07;;;;;;;;;;5056623;28;20024;-87
2023/11/02 07:58:21;;;;;;;5.97;1.30;;;;;;;;;;5059713;28;20080;-87
2023/11/02 08:00:46;;;;;;;2.80;1.17;;;;;;;;;;5059732;28;20609;-86
2023/11/02 08:03:11;;;;;;;3.40;1.20;;;;;;;;;;5059804;28;20017;-86
2023/11/02 08:05:37;;;;;;;1.10;1.00;;;;;;;;;;5059787;28;20675;-86
2023/11/02 08:08:02;;;;;;;2.38;1.02;;;;;;;;;;5077655;28;20804;-87
2023/11/02 08:10:30;;;;;;;2.80;1.23;;;;;;;;;;5077543;28;20099;-87
2023/11/02 08:12:55;;;;;;;1.33;1.08;;;;;;;;;;5059989;28;20017;-87
2023/11/02 08:15:20;;;;;;;2.67;1.00;;;;;;;;;;5077451;28;20020;-86
2023/11/02 08:17:45;;;;;;;1.33;0.93;;;;;;;;;;5059996;28;20307;-87
2023/11/02 08:20:11;;;;;;;1.20;0.90;;;;;;;;;;5077306;28;20277;-86
2023/11/02 08:22:36;;;;;;;3.53;1.10;;;;;;;;;;5059459;28;20261;-87
2023/11/02 08:25:03;;;;;;;2.77;1.10;;;;;;;;;;5059107;28;20044;-87
2023/11/02 08:27:28;;;;;;;1.45;0.93;;;;;;;;;;5077392;28;20260;-86
2023/11/02 08:29:55;;;;;;;3.15;1.27;;;;;;;;;;5059732;28;20408;-86
2023/11/02 08:32:21;;;;;;;1.35;1.10;;;;;;;;;;5058901;28;20078;-85
2023/11/02 08:34:46;;;;;;;2.28;1.10;;;;;;;;;;5076813;28;20442;-86
2023/11/02 08:37:11;;;;;;;1.98;1.00;;;;;;;;;;5059273;28;20017;-86
2023/11/02 08:39:38;;;;;;;1.73;1.00;;;;;;;;;;5058910;28;20024;-86
2023/11/02 08:42:03;;;;;;;4.13;1.10;;;;;;;;;;5058971;28;20613;-86
2023/11/02 08:44:29;;;;;;;1.73;0.95;;;;;;;;;;5059303;28;20020;-86
2023/11/02 08:46:54;;;;;;;1.33;0.80;;;;;;;;;;5058923;28;20024;-86
2023/11/02 08:49:20;;;;;;;4.22;1.05;;;;;;;;;;5059085;28;20043;-86
2023/11/02 08:51:46;;;;;;;3.10;1.02;;;;;;;;;;5058791;28;20032;-87
2023/11/02 08:54:11;;;;;;;3.47;1.20;;;;;;;;;;5076675;28;20365;-86
2023/11/02 08:56:36;;;;;;;3.45;1.20;;;;;;;;;;5058880;28;20012;-86
2023/11/02 08:59:01;;;;;;;1.93;0.90;;;;;;;;;;5058861;28;20016;-86
2023/11/02 09:01:28;;;;;;;3.87;1.30;;;;;;;;;;5076434;28;20249;-86
2023/11/02 09:03:55;;;;;;;7.55;1.08;;;;;;;;;;5058515;28;20285;-86
2023/11/02 09:06:21;;;;;;;2.78;1.20;;;;;;;;;;5058500;28;20024;-87
2023/11/02 09:08:47;;;;;;;2.97;1.35;;;;;;;;;;5058161;28;20491;-86
2023/11/02 09:11:13;;;;;;;1.98;1.00;;;;;;;;;;5076450;28;20025;-86
2023/11/02 09:13:39;;;;;;;2.55;1.10;;;;;;;;;;5058415;28;20020;-86
2023/11/02 09:16:04;;;;;;;1.88;1.23;;;;;;;;;;5058429;28;20023;-86
2023/11/02 09:18:30;;;;;;;1.38;1.05;;;;;;;;;;5058545;28;20028;-86
2023/11/02 09:20:55;;;;;;;3.65;1.85;;;;;;;;;;5058274;28;20024;-86
2023/11/02 09:23:20;;;;;;;1.98;0.80;;;;;;;;;;5058139;28;20055;-87
2023/11/02 09:25:46;;;;;;;2.47;1.40;;;;;;;;;;5058377;28;20033;-86
2023/11/02 09:28:13;;;;;;;2.90;1.10;;;;;;;;;;5058196;28;20056;-86
2023/11/02 09:30:38;;;;;;;2.90;0.93;;;;;;;;;;5076231;28;20024;-86
2023/11/02 09:33:04;;;;;;;5.63;1.17;;;;;;;;;;5057892;28;20075;-86
2023/11/02 09:35:29;;;;;;;1.35;0.90;;;;;;;;;;5057918;28;20008;-86
2023/11/02 09:37:54;;;;;;;1.23;0.90;;;;;;;;;;5058029;28;20024;-86
2023/11/02 09:40:19;;;;;;;2.17;1.00;;;;;;;;;;5057658;28;20345;-86
2023/11/02 09:42:45;;;;;;;7.40;1.07;;;;;;;;;;5057766;28;20016;-86
2023/11/02 09:45:11;;;;;;;6.60;1.10;;;;;;;;;;5057343;28;20257;-85
2023/11/02 09:47:38;;;;;;;1.77;1.13;;;;;;;;;;5057578;28;20032;-86
2023/11/02 09:50:04;;;;;;;4.25;1.42;;;;;;;;;;5057725;28;20016;-86
2023/11/02 09:52:30;;;;;;;1.40;1.00;;;;;;;;;;5075386;28;20031;-86
2023/11/02 09:54:55;;;;;;;2.35;1.17;;;;;;;;;;5075812;28;20024;-86
2023/11/02 09:57:21;;;;;;;2.25;1.17;;;;;;;;;;5057819;28;20044;-87
2023/11/02 09:59:46;;;;;;;4.00;1.08;;;;;;;;;;5057471;28;20369;-86
2023/11/02 10:02:12;;;;;;;1.95;1.40;;;;;;;;;;5057485;28;20469;-86
2023/11/02 10:04:37;;;;;;;2.63;1.38;;;;;;;;;;5057178;28;20103;-86
2023/11/02 10:07:05;;;;;;;3.80;1.63;;;;;;;;;;5057350;28;20031;-86
2023/11/02 10:09:30;;;;;;;2.75;1.38;;;;;;;;;;5057334;28;20039;-86
2023/11/02 10:11:56;;;;;;;1.98;1.30;;;;;;;;;;5057671;28;20029;-86
2023/11/02 10:14:21;;;;;;;2.50;1.33;;;;;;;;;;5057105;28;20028;-86
2023/11/02 10:16:46;;;;;;;2.42;1.52;;;;;;;;;;5057065;28;20468;-86
2023/11/02 10:19:11;;;;;;;3.97;1.40;;;;;;;;;;5056520;28;20055;-85
2023/11/02 10:21:40;;;;;;;7.55;1.70;;;;;;;;;;5056799;28;20252;-86
2023/11/02 10:24:05;;;;;;;3.97;1.20;;;;;;;;;;5056918;28;20044;-86
2023/11/02 10:26:34;;;;;;;2.25;1.10;;;;;;;;;;5057023;28;20415;-86
2023/11/02 10:29:01;;;;;;;3.35;1.00;;;;;;;;;;5056922;28;20025;-86
2023/11/02 10:31:30;;;;;;;2.75;1.00;;;;;;;;;;5057316;28;20050;-86
2023/11/02 10:33:55;;;;;;;4.30;1.45;;;;;;;;;;5056563;28;20016;-86
2023/11/02 10:36:21;;;;;;;4.00;1.17;;;;;;;;;;5056579;28;20024;-86
2023/11/02 10:38:46;;;;;;;4.70;1.42;;;;;;;;;;5039929;28;20020;-86
2023/11/02 10:41:15;;;;;;;3.17;1.30;;;;;;;;;;5074481;28;20021;-86
2023/11/02 10:43:41;;;;;;;4.47;1.25;;;;;;;;;;5056674;28;20047;-86
2023/11/02 10:46:10;;;;;;;1.90;0.98;;;;;;;;;;5056448;28;20365;-86
2023/11/02 10:48:37;;;;;;;4.78;1.35;;;;;;;;;;5074336;28;20033;-86
2023/11/02 10:51:03;;;;;;;5.18;1.98;;;;;;;;;;5056793;28;20538;-87
2023/11/02 10:53:44;;;;;;;2.95;1.25;;;;;;;;;;5056405;28;20116;-86
2023/11/02 10:56:18;;;;;;;4.82;1.48;;;;;;;;;;5056390;28;20027;-86
2023/11/02 10:58:44;;;;;;;4.28;1.38;;;;;;;;;;5074363;28;20465;-86
2023/11/02 11:01:09;;;;;;;4.68;1.20;;;;;;;;;;5056326;28;20016;-86
2023/11/02 11:03:35;;;;;;;5.90;1.60;;;;;;;;;;5056132;28;20020;-86
2023/11/02 11:06:01;;;;;;;1.98;1.30;;;;;;;;;;5056192;28;20437;-85
2023/11/02 11:08:27;;;;;;;3.55;1.45;;;;;;;;;;5073814;28;20048;-85
2023/11/02 11:10:53;;;;;;;1.83;1.10;;;;;;;;;;5073766;28;20012;-86
2023/11/02 11:13:19;;;;;;;5.10;1.25;;;;;;;;;;5055970;28;20066;-86
2023/11/02 11:15:45;;;;;;;4.45;1.52;;;;;;;;;;5056072;28;20431;-86
2023/11/02 11:18:11;;;;;;;2.17;1.10;;;;;;;;;;5056342;28;20411;-86
2023/11/02 11:20:38;;;;;;;4.60;1.00;;;;;;;;;;5055809;28;20044;-86
2023/11/02 11:23:04;;;;;;;2.58;1.10;;;;;;;;;;5055789;28;20099;-86
2023/11/02 11:25:29;;;;;;;3.58;1.13;;;;;;;;;;5055820;28;20059;-86
2023/11/02 11:27:54;;;;;;;4.18;1.00;;;;;;;;;;5055894;28;20116;-87
2023/11/02 11:30:19;;;;;;;8.30;3.07;;;;;;;;;;5072866;28;20119;-86
2023/11/02 11:32:45;;;;;;;4.43;2.17;;;;;;;;;;5055782;28;20273;-86
2023/11/02 11:35:12;;;;;;;4.27;1.23;;;;;;;;;;5073451;28;20030;-86
2023/11/02 11:37:57;;;;;;;4.28;1.05;;;;;;;;;;5055542;28;20258;-86
2023/11/02 11:40:23;;;;;;;2.60;1.20;;;;;;;;;;5073566;28;20021;-86
2023/11/02 11:42:52;;;;;;;7.78;1.58;;;;;;;;;;5055697;28;20017;-85
2023/11/02 11:45:36;;;;;;;1.98;1.17;;;;;;;;;;5055463;28;20078;-86
2023/11/02 11:48:05;;;;;;;5.90;1.50;;;;;;;;;;5055521;28;20028;-86
2023/11/02 11:50:30;;;;;;;2.95;1.40;;;;;;;;;;5055639;28;20500;-86
2023/11/02 11:53:15;;;;;;;2.90;1.25;;;;;;;;;;5055433;28;20025;-86
2023/11/02 11:55:42;;;;;;;4.65;1.58;;;;;;;;;;5073313;28;20074;-86
2023/11/02 11:58:08;;;;;;;7.63;1.73;;;;;;;;;;5055316;28;20024;-85
2023/11/02 12:00:34;;;;;;;3.88;1.13;;;;;;;;;;5073220;28;20561;-85
2023/11/02 12:03:09;;;;;;;2.38;1.20;;;;;;;;;;5055076;28;20039;-86
2023/11/02 12:05:44;;;;;;;3.97;1.40;;;;;;;;;;5055233;28;20021;-85
2023/11/02 12:08:09;;;;;;;11.50;1.40;;;;;;;;;;5055126;28;20108;-86
2023/11/02 12:10:45;;;;;;;1.83;1.00;;;;;;;;;;5055189;28;20121;-86
2023/11/02 12:13:12;;;;;;;3.10;1.15;;;;;;;;;;5055075;28;20158;-86
2023/11/02 12:15:49;;;;;;;3.00;1.10;;;;;;;;;;5055463;28;20028;-86
2023/11/02 12:18:16;;;;;;;3.92;1.30;;;;;;;;;;5055021;28;20477;-85
2023/11/02 12:20:42;;;;;;;6.25;1.38;;;;;;;;;;5055094;28;20427;-86
2023/11/02 12:23:08;;;;;;;5.75;1.20;;;;;;;;;;5072912;28;20036;-86
2023/11/02 12:25:33;;;;;;;6.80;1.75;;;;;;;;;;5072996;28;20017;-86
2023/11/02 12:27:58;;;;;;;3.17;1.43;;;;;;;;;;5055146;28;20017;-86
2023/11/02 12:30:23;;;;;;;4.13;1.15;;;;;;;;;;5054938;28;20268;-86
2023/11/02 12:32:49;;;;;;;3.88;1.50;;;;;;;;;;5055173;28;20056;-86
2023/11/02 12:35:17;;;;;;;4.57;1.17;;;;;;;;;;5054694;28;20028;-86
2023/11/02 12:37:42;;;;;;;7.03;1.35;;;;;;;;;;5054933;28;20241;-85
2023/11/02 12:40:08;;;;;;;3.88;1.17;;;;;;;;;;5072951;28;20017;-86
2023/11/02 12:42:36;;;;;;;4.22;1.52;;;;;;;;;;5056902;28;20020;-86
2023/11/02 12:45:01;;;;;;;4.13;0.93;;;;;;;;;;5058523;28;20025;-86
2023/11/02 12:47:39;;;;;;;6.25;1.42;;;;;;;;;;5058531;28;20392;-85
2023/11/02 12:50:05;;;;;;;5.00;1.40;;;;;;;;;;5058410;28;20021;-85
2023/11/02 12:52:40;;;;;;;5.38;1.45;;;;;;;;;;5076190;28;20070;-85
2023/11/02 12:55:05;;;;;;;4.97;1.17;;;;;;;;;;5058186;28;20486;-85
2023/11/02 12:57:37;;;;;;;4.65;1.00;;;;;;;;;;5058314;28;20028;-86
2023/11/02 13:00:04;;;;;;;2.78;1.02;;;;;;;;;;5058455;28;20472;-86
2023/11/02 13:02:29;;;;;;;6.60;1.50;;;;;;;;;;5058253;28;20497;-86
2023/11/02 13:04:55;;;;;;;3.75;1.13;;;;;;;;;;5058243;28;20117;-86
2023/11/02 13:07:22;;;;;;;5.07;1.17;;;;;;;;;;5058137;28;20108;-85
2023/11/02 13:10:04;;;;;;;5.57;1.13;;;;;;;;;;5058466;28;20103;-86
2023/11/02 13:12:29;;;;;;;6.25;1.33;;;;;;;;;;5058101;28;20017;-86
2023/11/02 13:14:55;;;;;;;6.93;1.33;;;;;;;;;;5058114;28;20021;-86
2023/11/02 13:17:21;;;;;;;5.70;1.25;;;;;;;;;;5058168;28;20511;-86
2023/11/02 13:19:49;;;;;;;3.30;1.23;;;;;;;;;;5075844;28;20048;-85
2023/11/02 13:22:14;;;;;;;8.45;1.38;;;;;;;;;;5057701;28;20303;-86
2023/11/02 13:24:40;;;;;;;2.53;0.80;;;;;;;;;;5057900;28;20041;-86
2023/11/02 13:27:06;;;;;;;8.57;1.40;;;;;;;;;;5075752;28;20242;-86
2023/11/02 13:29:31;;;;;;;7.13;1.30;;;;;;;;;;5057696;28;20379;-86
2023/11/02 13:31:57;;;;;;;8.13;1.70;;;;;;;;;;5075708;28;20721;-85
2023/11/02 13:34:22;;;;;;;6.00;1.20;;;;;;;;;;5075456;28;20042;-85
2023/11/02 13:36:47;;;;;;;9.80;1.13;;;;;;;;;;5057507;28;20041;-86
2023/11/02 13:39:12;;;;;;;2.78;1.05;;;;;;;;;;5075443;28;20026;-85
2023/11/02 13:41:38;;;;;;;7.05;1.35;;;;;;;;;;5057552;28;20460;-86
2023/11/02 13:44:03;;;;;;;3.72;1.20;;;;;;;;;;5057678;28;20024;-86
2023/11/02 13:46:29;;;;;;;2.83;1.00;;;;;;;;;;5057285;28;20055;-85
2023/11/02 13:48:54;;;;;;;8.32;1.60;;;;;;;;;;5057351;28;20024;-86
2023/11/02 13:51:20;;;;;;;4.22;0.98;;;;;;;;;;5057380;28;20540;-86
2023/11/02 13:53:45;;;;;;;3.78;1.45;;;;;;;;;;5056225;28;20024;-86
2023/11/02 13:56:11;;;;;;;7.73;1.07;;;;;;;;;;5057572;28;20023;-86
2023/11/02 13:58:37;;;;;;;9.65;1.58;;;;;;;;;;5075087;28;20756;-86
2023/11/02 14:01:02;;;;;;;7.72;1.30;;;;;;;;;;5057200;28;20024;-86
2023/11/02 14:03:28;;;;;;;8.65;1.05;;;;;;;;;;5057172;28;20016;-86
2023/11/02 14:05:53;;;;;;;6.50;1.42;;;;;;;;;;5075015;28;20082;-86
2023/11/02 14:08:19;;;;;;;4.28;1.15;;;;;;;;;;5057078;28;20107;-85
2023/11/02 14:10:45;;;;;;;3.67;0.90;;;;;;;;;;5056925;28;20031;-85
2023/11/02 14:13:11;;;;;;;6.18;1.20;;;;;;;;;;5057028;28;20077;-85
2023/11/02 14:15:36;;;;;;;7.38;0.82;;;;;;;;;;5056961;28;20013;-86
2023/11/02 14:18:01;;;;;;;6.97;1.17;;;;;;;;;;5056977;28;20025;-86
2023/11/02 14:20:26;;;;;;;8.13;1.10;;;;;;;;;;5056790;28;20468;-85
2023/11/02 14:22:52;;;;;;;5.70;1.10;;;;;;;;;;5056568;28;20012;-86
2023/11/02 14:25:17;;;;;;;6.10;1.13;;;;;;;;;;5057009;28;20021;-86
2023/11/02 14:27:42;;;;;;;6.50;1.10;;;;;;;;;;5056893;28;20020;-85
2023/11/02 14:30:08;;;;;;;3.80;0.82;;;;;;;;;;5056607;28;20257;-85
2023/11/02 14:32:33;;;;;;;3.72;0.93;;;;;;;;;;5074373;28;20024;-85
2023/11/02 14:34:58;;;;;;;4.90;0.87;;;;;;;;;;5056281;28;20024;-85
2023/11/02 14:37:24;;;;;;;4.88;0.90;;;;;;;;;;5056321;28;20253;-86
2023/11/02 14:39:49;;;;;;;2.83;0.90;;;;;;;;;;5074233;28;20008;-85
2023/11/02 14:42:15;;;;;;;6.55;0.77;;;;;;;;;;5056292;28;20104;-85
2023/11/02 14:44:40;;;;;;;5.25;1.23;;;;;;;;;;5056155;28;20384;-85